sensor_id;sensor_type;location;lat;lon;timestamp;P1;durP1;ratioP1;P2;durP2;ratioP2
20000;SDS011;10161;41.188;-8.642;2023-03-16T00:02:07;12.20;;;7.20;;
20000;SDS011;10161;41.188;-8.642;2023-03-16T00:04:35;10.27;;;7.13;;
20000;SDS011;10161;41.188;-8.642;2023-03-16T00:07:12;12.80;;;7.60;;
20000;SDS011;10161;41.188;-8.642;2023-03-16T00:09:40;11.23;;;7.30;;
20000;SDS011;10161;41.188;-8.642;2023-03-16T00:12:08;12.47;;;7.20;;
20000;SDS011;10161;41.188;-8.642;2023-03-16T00:14:41;9.37;;;7.13;;
20000;SDS011;10161;41.188;-8.642;2023-03-16T00:17:11;11.83;;;7.70;;
20000;SDS011;10161;41.188;-8.642;2023-03-16T00:19:43;11.10;;;7.03;;
20000;SDS011;10161;41.188;-8.642;2023-03-16T00:22:12;12.13;;;8.10;;
20000;SDS011;10161;41.188;-8.642;2023-03-16T00:24:40;11.00;;;7.20;;
20000;SDS011;10161;41.188;-8.642;2023-03-16T00:27:08;11.70;;;7.73;;
20000;SDS011;10161;41.188;-8.642;2023-03-16T00:29:39;16.53;;;8.20;;
20000;SDS011;10161;41.188;-8.642;2023-03-16T00:32:14;13.43;;;7.60;;
20000;SDS011;10161;41.188;-8.642;2023-03-16T00:34:42;13.83;;;7.17;;
20000;SDS011;10161;41.188;-8.642;2023-03-16T00:37:10;8.87;;;6.87;;
20000;SDS011;10161;41.188;-8.642;2023-03-16T00:39:38;10.80;;;7.30;;
20000;SDS011;10161;41.188;-8.642;2023-03-16T00:42:06;14.37;;;7.67;;
20000;SDS011;10161;41.188;-8.642;2023-03-16T00:44:33;13.77;;;7.90;;
20000;SDS011;10161;41.188;-8.642;2023-03-16T00:47:00;10.50;;;7.37;;
20000;SDS011;10161;41.188;-8.642;2023-03-16T00:49:29;11.87;;;7.30;;
20000;SDS011;10161;41.188;-8.642;2023-03-16T00:51:59;11.97;;;6.70;;
20000;SDS011;10161;41.188;-8.642;2023-03-16T00:54:26;13.47;;;6.80;;
20000;SDS011;10161;41.188;-8.642;2023-03-16T00:56:53;15.00;;;8.43;;
20000;SDS011;10161;41.188;-8.642;2023-03-16T00:59:21;11.17;;;7.30;;
20000;SDS011;10161;41.188;-8.642;2023-03-16T01:01:50;13.83;;;7.30;;
20000;SDS011;10161;41.188;-8.642;2023-03-16T01:04:19;11.10;;;7.70;;
20000;SDS011;10161;41.188;-8.642;2023-03-16T01:06:49;11.77;;;7.57;;
20000;SDS011;10161;41.188;-8.642;2023-03-16T01:09:16;12.30;;;7.90;;
20000;SDS011;10161;41.188;-8.642;2023-03-16T01:11:43;13.07;;;7.40;;
20000;SDS011;10161;41.188;-8.642;2023-03-16T01:14:12;18.50;;;8.83;;
20000;SDS011;10161;41.188;-8.642;2023-03-16T01:16:39;14.63;;;9.20;;
20000;SDS011;10161;41.188;-8.642;2023-03-16T01:19:10;18.80;;;10.23;;
20000;SDS011;10161;41.188;-8.642;2023-03-16T01:21:37;19.10;;;11.13;;
20000;SDS011;10161;41.188;-8.642;2023-03-16T01:24:06;15.10;;;10.00;;
20000;SDS011;10161;41.188;-8.642;2023-03-16T01:26:33;14.57;;;9.67;;
20000;SDS011;10161;41.188;-8.642;2023-03-16T01:29:00;18.00;;;9.27;;
20000;SDS011;10161;41.188;-8.642;2023-03-16T01:31:28;16.40;;;9.80;;
20000;SDS011;10161;41.188;-8.642;2023-03-16T01:33:56;13.57;;;8.30;;
20000;SDS011;10161;41.188;-8.642;2023-03-16T01:36:23;14.73;;;8.13;;
20000;SDS011;10161;41.188;-8.642;2023-03-16T01:38:50;13.13;;;7.63;;
20000;SDS011;10161;41.188;-8.642;2023-03-16T01:41:18;11.40;;;8.50;;
20000;SDS011;10161;41.188;-8.642;2023-03-16T01:43:47;14.93;;;7.57;;
20000;SDS011;10161;41.188;-8.642;2023-03-16T01:46:18;14.23;;;8.03;;
20000;SDS011;10161;41.188;-8.642;2023-03-16T01:48:57;17.67;;;8.00;;
20000;SDS011;10161;41.188;-8.642;2023-03-16T01:51:33;12.57;;;7.53;;
20000;SDS011;10161;41.188;-8.642;2023-03-16T01:54:03;16.27;;;8.73;;
20000;SDS011;10161;41.188;-8.642;2023-03-16T01:56:34;14.70;;;7.70;;
20000;SDS011;10161;41.188;-8.642;2023-03-16T01:59:05;10.13;;;7.50;;
20000;SDS011;10161;41.188;-8.642;2023-03-16T02:01:34;10.10;;;7.77;;
20000;SDS011;10161;41.188;-8.642;2023-03-16T02:04:03;12.93;;;7.30;;
20000;SDS011;10161;41.188;-8.642;2023-03-16T02:06:37;14.07;;;7.50;;
20000;SDS011;10161;41.188;-8.642;2023-03-16T02:09:05;12.47;;;7.63;;
20000;SDS011;10161;41.188;-8.642;2023-03-16T02:11:36;13.43;;;7.70;;
20000;SDS011;10161;41.188;-8.642;2023-03-16T02:14:05;14.60;;;7.83;;
20000;SDS011;10161;41.188;-8.642;2023-03-16T02:16:34;12.73;;;8.03;;
20000;SDS011;10161;41.188;-8.642;2023-03-16T02:19:01;15.00;;;8.80;;
20000;SDS011;10161;41.188;-8.642;2023-03-16T02:21:30;17.20;;;9.63;;
20000;SDS011;10161;41.188;-8.642;2023-03-16T02:23:59;16.97;;;8.20;;
20000;SDS011;10161;41.188;-8.642;2023-03-16T02:26:28;20.10;;;8.63;;
20000;SDS011;10161;41.188;-8.642;2023-03-16T02:29:05;15.57;;;10.17;;
20000;SDS011;10161;41.188;-8.642;2023-03-16T02:31:39;18.10;;;9.50;;
20000;SDS011;10161;41.188;-8.642;2023-03-16T02:34:06;18.00;;;8.33;;
20000;SDS011;10161;41.188;-8.642;2023-03-16T02:36:33;12.93;;;6.90;;
20000;SDS011;10161;41.188;-8.642;2023-03-16T02:39:02;14.70;;;7.40;;
20000;SDS011;10161;41.188;-8.642;2023-03-16T02:41:30;10.40;;;6.07;;
20000;SDS011;10161;41.188;-8.642;2023-03-16T02:43:58;12.63;;;6.87;;
20000;SDS011;10161;41.188;-8.642;2023-03-16T02:46:27;11.90;;;7.50;;
20000;SDS011;10161;41.188;-8.642;2023-03-16T02:49:02;9.67;;;5.83;;
20000;SDS011;10161;41.188;-8.642;2023-03-16T02:51:31;14.00;;;7.60;;
20000;SDS011;10161;41.188;-8.642;2023-03-16T02:53:59;13.17;;;7.17;;
20000;SDS011;10161;41.188;-8.642;2023-03-16T02:56:27;12.27;;;6.90;;
20000;SDS011;10161;41.188;-8.642;2023-03-16T02:58:54;11.10;;;7.20;;
20000;SDS011;10161;41.188;-8.642;2023-03-16T03:01:22;11.50;;;7.00;;
20000;SDS011;10161;41.188;-8.642;2023-03-16T03:03:49;11.80;;;7.93;;
20000;SDS011;10161;41.188;-8.642;2023-03-16T03:06:17;15.40;;;7.23;;
20000;SDS011;10161;41.188;-8.642;2023-03-16T03:08:44;11.50;;;7.07;;
20000;SDS011;10161;41.188;-8.642;2023-03-16T03:11:12;10.43;;;7.60;;
20000;SDS011;10161;41.188;-8.642;2023-03-16T03:13:39;9.43;;;6.53;;
20000;SDS011;10161;41.188;-8.642;2023-03-16T03:16:08;9.60;;;7.10;;
20000;SDS011;10161;41.188;-8.642;2023-03-16T03:18:35;11.03;;;7.80;;
20000;SDS011;10161;41.188;-8.642;2023-03-16T03:21:03;10.53;;;7.10;;
20000;SDS011;10161;41.188;-8.642;2023-03-16T03:23:32;11.40;;;7.67;;
20000;SDS011;10161;41.188;-8.642;2023-03-16T03:26:00;12.57;;;7.20;;
20000;SDS011;10161;41.188;-8.642;2023-03-16T03:28:28;13.60;;;7.23;;
20000;SDS011;10161;41.188;-8.642;2023-03-16T03:30:58;10.30;;;8.20;;
20000;SDS011;10161;41.188;-8.642;2023-03-16T03:33:25;11.23;;;7.30;;
20000;SDS011;10161;41.188;-8.642;2023-03-16T03:35:54;10.07;;;7.70;;
20000;SDS011;10161;41.188;-8.642;2023-03-16T03:38:21;9.43;;;7.07;;
20000;SDS011;10161;41.188;-8.642;2023-03-16T03:40:50;13.80;;;7.60;;
20000;SDS011;10161;41.188;-8.642;2023-03-16T03:43:17;13.70;;;7.53;;
20000;SDS011;10161;41.188;-8.642;2023-03-16T03:45:45;11.60;;;7.40;;
20000;SDS011;10161;41.188;-8.642;2023-03-16T03:48:12;13.53;;;7.50;;
20000;SDS011;10161;41.188;-8.642;2023-03-16T03:50:39;7.87;;;6.20;;
20000;SDS011;10161;41.188;-8.642;2023-03-16T03:53:06;10.77;;;6.70;;
20000;SDS011;10161;41.188;-8.642;2023-03-16T03:55:33;11.20;;;7.30;;
20000;SDS011;10161;41.188;-8.642;2023-03-16T03:58:03;11.97;;;7.20;;
20000;SDS011;10161;41.188;-8.642;2023-03-16T04:00:30;14.20;;;7.23;;
20000;SDS011;10161;41.188;-8.642;2023-03-16T04:02:58;11.03;;;7.63;;
20000;SDS011;10161;41.188;-8.642;2023-03-16T04:05:25;10.93;;;6.77;;
20000;SDS011;10161;41.188;-8.642;2023-03-16T04:07:52;12.13;;;7.30;;
20000;SDS011;10161;41.188;-8.642;2023-03-16T04:10:21;11.53;;;6.77;;
20000;SDS011;10161;41.188;-8.642;2023-03-16T04:12:49;9.10;;;6.10;;
20000;SDS011;10161;41.188;-8.642;2023-03-16T04:15:18;8.30;;;6.23;;
20000;SDS011;10161;41.188;-8.642;2023-03-16T04:17:47;10.00;;;6.30;;
20000;SDS011;10161;41.188;-8.642;2023-03-16T04:20:14;11.23;;;6.60;;
20000;SDS011;10161;41.188;-8.642;2023-03-16T04:22:43;10.73;;;7.10;;
20000;SDS011;10161;41.188;-8.642;2023-03-16T04:25:11;11.20;;;6.77;;
20000;SDS011;10161;41.188;-8.642;2023-03-16T04:27:39;11.60;;;7.63;;
20000;SDS011;10161;41.188;-8.642;2023-03-16T04:30:08;12.27;;;6.60;;
20000;SDS011;10161;41.188;-8.642;2023-03-16T04:32:38;12.40;;;7.13;;
20000;SDS011;10161;41.188;-8.642;2023-03-16T04:35:06;10.80;;;7.13;;
20000;SDS011;10161;41.188;-8.642;2023-03-16T04:37:33;10.03;;;6.30;;
20000;SDS011;10161;41.188;-8.642;2023-03-16T04:40:01;9.93;;;7.03;;
20000;SDS011;10161;41.188;-8.642;2023-03-16T04:42:34;12.07;;;6.90;;
20000;SDS011;10161;41.188;-8.642;2023-03-16T04:45:01;8.43;;;6.43;;
20000;SDS011;10161;41.188;-8.642;2023-03-16T04:47:28;10.20;;;7.17;;
20000;SDS011;10161;41.188;-8.642;2023-03-16T04:49:59;13.20;;;7.57;;
20000;SDS011;10161;41.188;-8.642;2023-03-16T04:52:26;10.13;;;6.30;;
20000;SDS011;10161;41.188;-8.642;2023-03-16T04:54:54;10.63;;;6.80;;
20000;SDS011;10161;41.188;-8.642;2023-03-16T04:57:21;10.37;;;6.93;;
20000;SDS011;10161;41.188;-8.642;2023-03-16T04:59:48;9.30;;;6.60;;
20000;SDS011;10161;41.188;-8.642;2023-03-16T05:02:15;9.03;;;6.80;;
20000;SDS011;10161;41.188;-8.642;2023-03-16T05:04:44;10.03;;;6.23;;
20000;SDS011;10161;41.188;-8.642;2023-03-16T05:07:12;10.20;;;7.20;;
20000;SDS011;10161;41.188;-8.642;2023-03-16T05:09:40;11.20;;;7.10;;
20000;SDS011;10161;41.188;-8.642;2023-03-16T05:12:07;12.17;;;7.80;;
20000;SDS011;10161;41.188;-8.642;2023-03-16T05:14:34;11.70;;;7.17;;
20000;SDS011;10161;41.188;-8.642;2023-03-16T05:17:02;9.60;;;6.90;;
20000;SDS011;10161;41.188;-8.642;2023-03-16T05:19:30;10.80;;;6.93;;
20000;SDS011;10161;41.188;-8.642;2023-03-16T05:21:57;12.83;;;7.10;;
20000;SDS011;10161;41.188;-8.642;2023-03-16T05:24:33;9.23;;;6.17;;
20000;SDS011;10161;41.188;-8.642;2023-03-16T05:27:01;11.03;;;6.40;;
20000;SDS011;10161;41.188;-8.642;2023-03-16T05:29:28;13.77;;;7.20;;
20000;SDS011;10161;41.188;-8.642;2023-03-16T05:31:56;9.97;;;6.70;;
20000;SDS011;10161;41.188;-8.642;2023-03-16T05:34:23;10.73;;;6.57;;
20000;SDS011;10161;41.188;-8.642;2023-03-16T05:36:51;8.27;;;6.23;;
20000;SDS011;10161;41.188;-8.642;2023-03-16T05:39:17;11.10;;;6.30;;
20000;SDS011;10161;41.188;-8.642;2023-03-16T05:41:46;14.13;;;7.33;;
20000;SDS011;10161;41.188;-8.642;2023-03-16T05:44:14;13.13;;;7.03;;
20000;SDS011;10161;41.188;-8.642;2023-03-16T05:46:41;11.80;;;6.70;;
20000;SDS011;10161;41.188;-8.642;2023-03-16T05:49:09;10.07;;;6.63;;
20000;SDS011;10161;41.188;-8.642;2023-03-16T05:51:37;8.93;;;7.00;;
20000;SDS011;10161;41.188;-8.642;2023-03-16T05:54:04;11.53;;;7.47;;
20000;SDS011;10161;41.188;-8.642;2023-03-16T05:56:31;8.30;;;6.60;;
20000;SDS011;10161;41.188;-8.642;2023-03-16T05:59:00;7.83;;;6.40;;
20000;SDS011;10161;41.188;-8.642;2023-03-16T06:01:27;9.13;;;6.70;;
20000;SDS011;10161;41.188;-8.642;2023-03-16T06:03:55;9.63;;;6.47;;
20000;SDS011;10161;41.188;-8.642;2023-03-16T06:06:22;9.27;;;6.37;;
20000;SDS011;10161;41.188;-8.642;2023-03-16T06:08:48;9.13;;;6.30;;
20000;SDS011;10161;41.188;-8.642;2023-03-16T06:11:15;9.97;;;7.00;;
20000;SDS011;10161;41.188;-8.642;2023-03-16T06:13:43;8.00;;;6.27;;
20000;SDS011;10161;41.188;-8.642;2023-03-16T06:16:11;8.27;;;5.60;;
20000;SDS011;10161;41.188;-8.642;2023-03-16T06:18:40;12.30;;;6.37;;
20000;SDS011;10161;41.188;-8.642;2023-03-16T06:21:07;10.40;;;6.57;;
20000;SDS011;10161;41.188;-8.642;2023-03-16T06:23:34;9.40;;;6.50;;
20000;SDS011;10161;41.188;-8.642;2023-03-16T06:26:01;10.73;;;6.70;;
20000;SDS011;10161;41.188;-8.642;2023-03-16T06:28:29;9.67;;;6.40;;
20000;SDS011;10161;41.188;-8.642;2023-03-16T06:30:56;10.27;;;6.13;;
20000;SDS011;10161;41.188;-8.642;2023-03-16T06:33:25;9.57;;;6.00;;
20000;SDS011;10161;41.188;-8.642;2023-03-16T06:35:52;12.07;;;6.10;;
20000;SDS011;10161;41.188;-8.642;2023-03-16T06:38:19;8.70;;;6.20;;
20000;SDS011;10161;41.188;-8.642;2023-03-16T06:40:49;9.60;;;6.63;;
20000;SDS011;10161;41.188;-8.642;2023-03-16T06:43:17;10.07;;;5.90;;
20000;SDS011;10161;41.188;-8.642;2023-03-16T06:45:44;11.13;;;6.70;;
20000;SDS011;10161;41.188;-8.642;2023-03-16T06:48:11;13.33;;;7.53;;
20000;SDS011;10161;41.188;-8.642;2023-03-16T06:50:39;12.50;;;7.00;;
20000;SDS011;10161;41.188;-8.642;2023-03-16T06:53:06;12.83;;;6.63;;
20000;SDS011;10161;41.188;-8.642;2023-03-16T06:55:33;8.70;;;5.83;;
20000;SDS011;10161;41.188;-8.642;2023-03-16T06:58:01;12.20;;;6.30;;
20000;SDS011;10161;41.188;-8.642;2023-03-16T07:00:28;9.07;;;5.50;;
20000;SDS011;10161;41.188;-8.642;2023-03-16T07:02:55;8.20;;;5.53;;
20000;SDS011;10161;41.188;-8.642;2023-03-16T07:05:22;11.60;;;6.00;;
20000;SDS011;10161;41.188;-8.642;2023-03-16T07:07:51;11.97;;;6.40;;
20000;SDS011;10161;41.188;-8.642;2023-03-16T07:10:18;9.80;;;6.03;;
20000;SDS011;10161;41.188;-8.642;2023-03-16T07:12:46;11.30;;;6.20;;
20000;SDS011;10161;41.188;-8.642;2023-03-16T07:15:14;8.80;;;5.77;;
20000;SDS011;10161;41.188;-8.642;2023-03-16T07:17:41;10.43;;;6.23;;
20000;SDS011;10161;41.188;-8.642;2023-03-16T07:20:08;13.10;;;5.90;;
20000;SDS011;10161;41.188;-8.642;2023-03-16T07:22:36;14.30;;;6.53;;
20000;SDS011;10161;41.188;-8.642;2023-03-16T07:25:06;10.83;;;6.33;;
20000;SDS011;10161;41.188;-8.642;2023-03-16T07:27:35;13.80;;;6.57;;
20000;SDS011;10161;41.188;-8.642;2023-03-16T07:30:03;13.73;;;7.43;;
20000;SDS011;10161;41.188;-8.642;2023-03-16T07:32:31;11.40;;;7.80;;
20000;SDS011;10161;41.188;-8.642;2023-03-16T07:34:58;14.00;;;6.70;;
20000;SDS011;10161;41.188;-8.642;2023-03-16T07:37:26;17.30;;;8.13;;
20000;SDS011;10161;41.188;-8.642;2023-03-16T07:39:54;19.00;;;8.53;;
20000;SDS011;10161;41.188;-8.642;2023-03-16T07:42:23;13.30;;;6.90;;
20000;SDS011;10161;41.188;-8.642;2023-03-16T07:44:50;15.50;;;8.03;;
20000;SDS011;10161;41.188;-8.642;2023-03-16T07:47:18;14.17;;;7.93;;
20000;SDS011;10161;41.188;-8.642;2023-03-16T07:49:45;18.33;;;9.13;;
20000;SDS011;10161;41.188;-8.642;2023-03-16T07:52:12;14.70;;;9.60;;
20000;SDS011;10161;41.188;-8.642;2023-03-16T07:54:39;14.97;;;8.10;;
20000;SDS011;10161;41.188;-8.642;2023-03-16T07:57:07;13.50;;;7.20;;
20000;SDS011;10161;41.188;-8.642;2023-03-16T07:59:36;13.57;;;7.97;;
20000;SDS011;10161;41.188;-8.642;2023-03-16T08:02:03;15.10;;;8.30;;
20000;SDS011;10161;41.188;-8.642;2023-03-16T08:04:30;14.97;;;7.90;;
20000;SDS011;10161;41.188;-8.642;2023-03-16T08:06:57;19.00;;;8.53;;
20000;SDS011;10161;41.188;-8.642;2023-03-16T08:09:29;14.30;;;8.37;;
20000;SDS011;10161;41.188;-8.642;2023-03-16T08:12:00;15.87;;;7.90;;
20000;SDS011;10161;41.188;-8.642;2023-03-16T08:14:29;16.30;;;9.20;;
20000;SDS011;10161;41.188;-8.642;2023-03-16T08:16:59;18.43;;;8.13;;
20000;SDS011;10161;41.188;-8.642;2023-03-16T08:19:26;20.03;;;9.20;;
20000;SDS011;10161;41.188;-8.642;2023-03-16T08:21:56;14.97;;;7.60;;
20000;SDS011;10161;41.188;-8.642;2023-03-16T08:24:25;18.67;;;8.10;;
20000;SDS011;10161;41.188;-8.642;2023-03-16T08:26:53;19.20;;;9.57;;
20000;SDS011;10161;41.188;-8.642;2023-03-16T08:29:20;23.67;;;8.30;;
20000;SDS011;10161;41.188;-8.642;2023-03-16T08:31:47;23.70;;;9.40;;
20000;SDS011;10161;41.188;-8.642;2023-03-16T08:34:17;20.60;;;8.97;;
20000;SDS011;10161;41.188;-8.642;2023-03-16T08:36:44;15.07;;;8.20;;
20000;SDS011;10161;41.188;-8.642;2023-03-16T08:39:11;17.50;;;8.57;;
20000;SDS011;10161;41.188;-8.642;2023-03-16T08:41:39;17.17;;;8.37;;
20000;SDS011;10161;41.188;-8.642;2023-03-16T08:44:07;13.20;;;8.30;;
20000;SDS011;10161;41.188;-8.642;2023-03-16T08:46:34;16.30;;;8.13;;
20000;SDS011;10161;41.188;-8.642;2023-03-16T08:49:02;14.97;;;8.17;;
20000;SDS011;10161;41.188;-8.642;2023-03-16T08:51:32;27.60;;;9.70;;
20000;SDS011;10161;41.188;-8.642;2023-03-16T08:53:59;16.37;;;7.63;;
20000;SDS011;10161;41.188;-8.642;2023-03-16T08:56:26;20.37;;;8.17;;
20000;SDS011;10161;41.188;-8.642;2023-03-16T08:58:54;21.23;;;9.40;;
20000;SDS011;10161;41.188;-8.642;2023-03-16T09:01:21;19.20;;;8.77;;
20000;SDS011;10161;41.188;-8.642;2023-03-16T09:03:49;9.87;;;6.30;;
20000;SDS011;10161;41.188;-8.642;2023-03-16T09:06:16;16.23;;;6.97;;
20000;SDS011;10161;41.188;-8.642;2023-03-16T09:08:45;17.33;;;7.70;;
20000;SDS011;10161;41.188;-8.642;2023-03-16T09:11:13;17.10;;;7.10;;
20000;SDS011;10161;41.188;-8.642;2023-03-16T09:13:42;17.87;;;7.07;;
20000;SDS011;10161;41.188;-8.642;2023-03-16T09:16:10;13.80;;;6.27;;
20000;SDS011;10161;41.188;-8.642;2023-03-16T09:18:40;19.23;;;7.70;;
20000;SDS011;10161;41.188;-8.642;2023-03-16T09:21:08;14.00;;;6.67;;
20000;SDS011;10161;41.188;-8.642;2023-03-16T09:23:37;14.30;;;7.80;;
20000;SDS011;10161;41.188;-8.642;2023-03-16T09:26:07;16.70;;;5.83;;
20000;SDS011;10161;41.188;-8.642;2023-03-16T09:28:35;14.27;;;6.20;;
20000;SDS011;10161;41.188;-8.642;2023-03-16T09:31:05;14.43;;;6.90;;
20000;SDS011;10161;41.188;-8.642;2023-03-16T09:33:33;13.90;;;6.40;;
20000;SDS011;10161;41.188;-8.642;2023-03-16T09:36:01;16.27;;;6.17;;
20000;SDS011;10161;41.188;-8.642;2023-03-16T09:38:28;18.70;;;6.93;;
20000;SDS011;10161;41.188;-8.642;2023-03-16T09:40:56;17.63;;;6.87;;
20000;SDS011;10161;41.188;-8.642;2023-03-16T09:43:37;17.13;;;5.70;;
20000;SDS011;10161;41.188;-8.642;2023-03-16T09:46:12;12.93;;;5.37;;
20000;SDS011;10161;41.188;-8.642;2023-03-16T09:48:41;17.63;;;6.07;;
20000;SDS011;10161;41.188;-8.642;2023-03-16T09:51:12;16.23;;;5.80;;
20000;SDS011;10161;41.188;-8.642;2023-03-16T09:53:43;17.37;;;5.60;;
20000;SDS011;10161;41.188;-8.642;2023-03-16T09:56:14;11.43;;;4.30;;
20000;SDS011;10161;41.188;-8.642;2023-03-16T09:58:44;8.30;;;4.10;;
20000;SDS011;10161;41.188;-8.642;2023-03-16T10:01:13;12.63;;;5.43;;
20000;SDS011;10161;41.188;-8.642;2023-03-16T10:03:50;9.70;;;4.23;;
20000;SDS011;10161;41.188;-8.642;2023-03-16T10:06:31;16.73;;;4.87;;
20000;SDS011;10161;41.188;-8.642;2023-03-16T10:09:02;20.93;;;5.10;;
20000;SDS011;10161;41.188;-8.642;2023-03-16T10:11:32;21.30;;;5.40;;
20000;SDS011;10161;41.188;-8.642;2023-03-16T10:14:04;15.27;;;4.57;;
20000;SDS011;10161;41.188;-8.642;2023-03-16T10:16:42;10.93;;;4.50;;
20000;SDS011;10161;41.188;-8.642;2023-03-16T10:19:15;11.90;;;3.80;;
20000;SDS011;10161;41.188;-8.642;2023-03-16T10:21:44;15.17;;;4.10;;
20000;SDS011;10161;41.188;-8.642;2023-03-16T10:24:15;11.00;;;3.40;;
20000;SDS011;10161;41.188;-8.642;2023-03-16T10:26:50;8.70;;;3.57;;
20000;SDS011;10161;41.188;-8.642;2023-03-16T10:29:25;15.60;;;4.70;;
20000;SDS011;10161;41.188;-8.642;2023-03-16T10:31:53;14.90;;;4.17;;
20000;SDS011;10161;41.188;-8.642;2023-03-16T10:34:21;9.10;;;3.60;;
20000;SDS011;10161;41.188;-8.642;2023-03-16T10:36:49;15.30;;;3.90;;
20000;SDS011;10161;41.188;-8.642;2023-03-16T10:39:17;9.03;;;3.30;;
20000;SDS011;10161;41.188;-8.642;2023-03-16T10:41:45;11.73;;;3.43;;
20000;SDS011;10161;41.188;-8.642;2023-03-16T10:44:15;12.03;;;4.47;;
20000;SDS011;10161;41.188;-8.642;2023-03-16T10:46:45;6.50;;;3.07;;
20000;SDS011;10161;41.188;-8.642;2023-03-16T10:49:21;8.37;;;3.30;;
20000;SDS011;10161;41.188;-8.642;2023-03-16T10:51:51;13.77;;;4.77;;
20000;SDS011;10161;41.188;-8.642;2023-03-16T10:54:21;13.10;;;4.43;;
20000;SDS011;10161;41.188;-8.642;2023-03-16T10:56:53;10.47;;;3.67;;
20000;SDS011;10161;41.188;-8.642;2023-03-16T10:59:25;10.13;;;3.73;;
20000;SDS011;10161;41.188;-8.642;2023-03-16T11:01:56;9.90;;;3.73;;
20000;SDS011;10161;41.188;-8.642;2023-03-16T11:04:23;16.73;;;4.53;;
20000;SDS011;10161;41.188;-8.642;2023-03-16T11:06:51;13.50;;;5.10;;
20000;SDS011;10161;41.188;-8.642;2023-03-16T11:09:20;10.73;;;4.00;;
20000;SDS011;10161;41.188;-8.642;2023-03-16T11:11:49;18.13;;;4.97;;
20000;SDS011;10161;41.188;-8.642;2023-03-16T11:14:18;10.27;;;4.90;;
20000;SDS011;10161;41.188;-8.642;2023-03-16T11:16:47;11.53;;;4.60;;
20000;SDS011;10161;41.188;-8.642;2023-03-16T11:19:19;8.97;;;4.27;;
20000;SDS011;10161;41.188;-8.642;2023-03-16T11:21:48;14.80;;;4.50;;
20000;SDS011;10161;41.188;-8.642;2023-03-16T11:24:21;11.47;;;4.47;;
20000;SDS011;10161;41.188;-8.642;2023-03-16T11:26:52;11.40;;;4.53;;
20000;SDS011;10161;41.188;-8.642;2023-03-16T11:29:20;13.40;;;4.30;;
20000;SDS011;10161;41.188;-8.642;2023-03-16T11:31:51;10.37;;;5.37;;
20000;SDS011;10161;41.188;-8.642;2023-03-16T11:34:24;20.33;;;4.50;;
20000;SDS011;10161;41.188;-8.642;2023-03-16T11:36:53;9.90;;;3.93;;
20000;SDS011;10161;41.188;-8.642;2023-03-16T11:39:30;11.33;;;4.53;;
20000;SDS011;10161;41.188;-8.642;2023-03-16T11:42:19;8.37;;;4.10;;
20000;SDS011;10161;41.188;-8.642;2023-03-16T11:44:56;10.70;;;4.60;;
20000;SDS011;10161;41.188;-8.642;2023-03-16T11:50:44;7.87;;;3.97;;
20000;SDS011;10161;41.188;-8.642;2023-03-16T11:53:18;9.90;;;4.70;;
20000;SDS011;10161;41.188;-8.642;2023-03-16T11:55:53;10.67;;;4.67;;
20000;SDS011;10161;41.188;-8.642;2023-03-16T11:58:28;13.57;;;5.33;;
20000;SDS011;10161;41.188;-8.642;2023-03-16T12:01:07;11.17;;;4.97;;
20000;SDS011;10161;41.188;-8.642;2023-03-16T12:04:00;11.40;;;4.90;;
20000;SDS011;10161;41.188;-8.642;2023-03-16T12:06:41;12.77;;;6.73;;
20000;SDS011;10161;41.188;-8.642;2023-03-16T12:09:19;9.60;;;4.30;;
20000;SDS011;10161;41.188;-8.642;2023-03-16T12:11:55;10.47;;;5.10;;
20000;SDS011;10161;41.188;-8.642;2023-03-16T12:14:27;10.23;;;4.47;;
20000;SDS011;10161;41.188;-8.642;2023-03-16T12:16:56;8.90;;;3.73;;
20000;SDS011;10161;41.188;-8.642;2023-03-16T12:19:26;13.60;;;5.03;;
20000;SDS011;10161;41.188;-8.642;2023-03-16T12:22:02;13.97;;;4.23;;
20000;SDS011;10161;41.188;-8.642;2023-03-16T12:24:36;21.67;;;5.00;;
20000;SDS011;10161;41.188;-8.642;2023-03-16T12:27:08;17.90;;;5.53;;
20000;SDS011;10161;41.188;-8.642;2023-03-16T12:29:40;14.33;;;5.13;;
20000;SDS011;10161;41.188;-8.642;2023-03-16T12:32:14;15.57;;;5.70;;
20000;SDS011;10161;41.188;-8.642;2023-03-16T12:34:46;15.67;;;5.47;;
20000;SDS011;10161;41.188;-8.642;2023-03-16T12:37:20;13.60;;;6.33;;
20000;SDS011;10161;41.188;-8.642;2023-03-16T12:39:55;15.63;;;5.83;;
20000;SDS011;10161;41.188;-8.642;2023-03-16T12:45:32;22.07;;;6.60;;
20000;SDS011;10161;41.188;-8.642;2023-03-16T12:48:05;17.57;;;6.53;;
20000;SDS011;10161;41.188;-8.642;2023-03-16T12:50:46;20.33;;;6.33;;
20000;SDS011;10161;41.188;-8.642;2023-03-16T12:53:25;18.57;;;7.03;;
20000;SDS011;10161;41.188;-8.642;2023-03-16T12:55:53;15.73;;;6.53;;
20000;SDS011;10161;41.188;-8.642;2023-03-16T12:58:22;19.57;;;7.30;;
20000;SDS011;10161;41.188;-8.642;2023-03-16T13:00:54;23.93;;;7.33;;
20000;SDS011;10161;41.188;-8.642;2023-03-16T13:03:23;16.77;;;7.50;;
20000;SDS011;10161;41.188;-8.642;2023-03-16T13:05:52;11.87;;;6.23;;
20000;SDS011;10161;41.188;-8.642;2023-03-16T13:08:20;13.90;;;6.90;;
20000;SDS011;10161;41.188;-8.642;2023-03-16T13:11:02;15.67;;;6.80;;
20000;SDS011;10161;41.188;-8.642;2023-03-16T13:13:31;17.03;;;7.70;;
20000;SDS011;10161;41.188;-8.642;2023-03-16T13:16:02;18.13;;;6.57;;
20000;SDS011;10161;41.188;-8.642;2023-03-16T13:18:34;17.17;;;5.87;;
20000;SDS011;10161;41.188;-8.642;2023-03-16T13:21:13;16.67;;;5.13;;
20000;SDS011;10161;41.188;-8.642;2023-03-16T13:23:46;16.40;;;4.57;;
20000;SDS011;10161;41.188;-8.642;2023-03-16T13:26:22;15.70;;;4.90;;
20000;SDS011;10161;41.188;-8.642;2023-03-16T13:28:56;10.70;;;3.87;;
20000;SDS011;10161;41.188;-8.642;2023-03-16T13:31:26;12.50;;;3.90;;
20000;SDS011;10161;41.188;-8.642;2023-03-16T13:33:58;9.30;;;3.73;;
20000;SDS011;10161;41.188;-8.642;2023-03-16T13:36:27;11.60;;;3.50;;
20000;SDS011;10161;41.188;-8.642;2023-03-16T13:38:55;16.27;;;4.07;;
20000;SDS011;10161;41.188;-8.642;2023-03-16T13:41:26;9.40;;;3.80;;
20000;SDS011;10161;41.188;-8.642;2023-03-16T13:43:53;20.40;;;4.60;;
20000;SDS011;10161;41.188;-8.642;2023-03-16T13:46:21;10.97;;;3.67;;
20000;SDS011;10161;41.188;-8.642;2023-03-16T13:48:56;10.27;;;3.40;;
20000;SDS011;10161;41.188;-8.642;2023-03-16T13:51:24;17.30;;;4.03;;
20000;SDS011;10161;41.188;-8.642;2023-03-16T13:53:51;10.93;;;3.90;;
20000;SDS011;10161;41.188;-8.642;2023-03-16T13:56:20;12.43;;;3.40;;
20000;SDS011;10161;41.188;-8.642;2023-03-16T13:58:52;11.60;;;3.57;;
20000;SDS011;10161;41.188;-8.642;2023-03-16T14:01:23;12.60;;;3.80;;
20000;SDS011;10161;41.188;-8.642;2023-03-16T14:03:51;13.13;;;3.63;;
20000;SDS011;10161;41.188;-8.642;2023-03-16T14:06:23;12.57;;;3.17;;
20000;SDS011;10161;41.188;-8.642;2023-03-16T14:08:51;12.30;;;4.13;;
20000;SDS011;10161;41.188;-8.642;2023-03-16T14:11:20;13.90;;;4.00;;
20000;SDS011;10161;41.188;-8.642;2023-03-16T14:13:52;11.77;;;3.87;;
20000;SDS011;10161;41.188;-8.642;2023-03-16T14:16:21;14.47;;;3.77;;
20000;SDS011;10161;41.188;-8.642;2023-03-16T14:18:51;12.33;;;4.30;;
20000;SDS011;10161;41.188;-8.642;2023-03-16T14:21:20;12.20;;;3.40;;
20000;SDS011;10161;41.188;-8.642;2023-03-16T14:23:50;12.33;;;3.73;;
20000;SDS011;10161;41.188;-8.642;2023-03-16T14:26:19;15.73;;;3.90;;
20000;SDS011;10161;41.188;-8.642;2023-03-16T14:28:55;14.73;;;4.27;;
20000;SDS011;10161;41.188;-8.642;2023-03-16T14:31:30;16.00;;;4.00;;
20000;SDS011;10161;41.188;-8.642;2023-03-16T14:33:59;14.23;;;4.13;;
20000;SDS011;10161;41.188;-8.642;2023-03-16T14:36:33;15.00;;;3.50;;
20000;SDS011;10161;41.188;-8.642;2023-03-16T14:39:08;17.57;;;3.83;;
20000;SDS011;10161;41.188;-8.642;2023-03-16T14:41:36;10.40;;;3.70;;
20000;SDS011;10161;41.188;-8.642;2023-03-16T14:44:11;13.70;;;3.27;;